Aérodrome :
LOGIN :

S'inscrire | Disclaimer

   EN    FR    IT 

 










Légende :    VFR   VFR Marginal   IFR   IFR Intensif   IFR Très Intensif
Visi : 
Plafond : 
>= 8 km
>= 3000ft
5 à 8 km
1000 à 3000 ft
1500m à 5 km
500 à 1000 ft
800 à 1500m
200 à 500 ft
< 800m
< 200 ft
Symboles :   Orages  Brouillard  Fortes neiges  Fortes précipitations  Vent > 20 kt
SIGMETs :   Divers  Orages  Givrage  Turbulence  Onde Orograph.  Cendres Volcan.







- Altitude de l'aérodrome : 183 ft


LIBA - Amendola Foggia

DERNIER METAR :
  • 180711Z 30004KT 3000 VCFG NSC 15/13 Q1016 RMK SKC VIS MIN 1800W WIND THR11 3003KT WIND THR29 /////KT YLO

METARs EXPIRÉS :
  • 180655Z 31005KT 1500 1000NW PRFG SCT005 15/13 Q1016 RMK SCT VIS MIN 1000NW WIND THR11 31004KT WIND THR29 /////KT AMB
  • 180555Z 33004KT 0000 FG VV001 15/14 Q1015 RMK VIS MIN 0000 WIND THR11 32003KT WIND THR29 /////KT RED
  • 180455Z 29005KT 0200 FG BKN013 14/13 Q1015 RMK BKN VIS MIN 0200 WIND THR11 28005KT WIND THR29 /////KT RED

TAF TAF LIBA
Valide du 18 à 06h jusqu'au 18 à 15h UTC


180500Z 1806/1815 VRB03KT 5000 BR FEW010
TEMPO 1806/1808 0500 FG SCT010
BECMG 1808/1810 09012KT 9999 FEW030
Pas de NOTAMs connus pour ce terrain.



MET'MAP, la Météo Aéronautique d'un coup d'oeil ! - Copyright ORBIFLY Décembre 2007 - Disclaimer

ORBIFLY MET'MAP TEAM :

Programmation & Développement : Alexandra Zaïnal
Conception & Développement : Baudouin d'Aumeries
Co-Programmation & Développement : Marc-Olivier Méhu
Soutien technique & logistique : Manuel Goepfert

Contact : metmap@orbifly.com




SOURCES & CREDITS :

   NOAA